Time;durP1;ratioP1;P1;durP2;ratioP2;P2;SDS_P1;SDS_P2;PMS_P1;PMS_P2;Temp;Humidity;BMP_temperature;BMP_pressure;BME280_temperature;BME280_humidity;BME280_pressure;Samples;Min_cycle;Max_cycle;Signal;HPM_P1;HPM_P2
2023/04/13 00:00:41;;;;;;;132.02;30.70;;;;;;;;;;5079225;28;20036;-66
2023/04/13 00:03:10;;;;;;;96.88;28.10;;;;;;;;;;5078888;28;20504;-66
2023/04/13 00:05:38;;;;;;;156.65;31.83;;;;;;;;;;5083526;28;20067;-66
2023/04/13 00:08:05;;;;;;;104.50;29.42;;;;;;;;;;5080075;28;20135;-66
2023/04/13 00:10:35;;;;;;;119.70;27.27;;;;;;;;;;5079504;28;20047;-65
2023/04/13 00:13:05;;;;;;;144.15;30.40;;;;;;;;;;5076195;28;20048;-66
2023/04/13 00:15:33;;;;;;;78.28;25.85;;;;;;;;;;5082053;28;20040;-66
2023/04/13 00:18:00;;;;;;;102.60;28.73;;;;;;;;;;5079933;28;20059;-66
2023/04/13 00:20:27;;;;;;;186.73;33.58;;;;;;;;;;5081281;28;20087;-66
2023/04/13 00:22:54;;;;;;;105.35;28.67;;;;;;;;;;5083505;28;20036;-66
2023/04/13 00:25:20;;;;;;;76.82;27.30;;;;;;;;;;5059399;28;20044;-66
2023/04/13 00:27:49;;;;;;;126.15;30.33;;;;;;;;;;5080365;28;20448;-66
2023/04/13 00:30:16;;;;;;;91.30;28.90;;;;;;;;;;5061404;28;20101;-66
2023/04/13 00:32:44;;;;;;;93.75;29.42;;;;;;;;;;5059271;28;20124;-67
2023/04/13 00:35:11;;;;;;;142.32;30.35;;;;;;;;;;5082653;28;20036;-66
2023/04/13 00:37:38;;;;;;;115.63;28.52;;;;;;;;;;5061887;28;20366;-66
2023/04/13 00:40:06;;;;;;;119.30;29.48;;;;;;;;;;5060603;28;20044;-66
2023/04/13 00:42:33;;;;;;;146.55;30.45;;;;;;;;;;5078750;28;20048;-66
2023/04/13 00:45:00;;;;;;;103.63;27.88;;;;;;;;;;5076536;28;20094;-66
2023/04/13 00:47:29;;;;;;;82.63;27.60;;;;;;;;;;5058521;28;20482;-66
2023/04/13 00:49:57;;;;;;;165.27;30.95;;;;;;;;;;5078375;28;20037;-66
2023/04/13 00:52:23;;;;;;;118.10;28.55;;;;;;;;;;5061089;28;20040;-65
2023/04/13 00:54:50;;;;;;;89.18;26.67;;;;;;;;;;5077747;28;20044;-66
2023/04/13 00:57:17;;;;;;;132.65;30.25;;;;;;;;;;5081856;28;20492;-66
2023/04/13 00:59:44;;;;;;;103.88;27.30;;;;;;;;;;5074780;28;20047;-65
2023/04/13 01:02:12;;;;;;;129.90;28.92;;;;;;;;;;5056227;28;20063;-65
2023/04/13 04:32:54;;;;;;;313.63;44.30;;;;;;;;;;5866417;23;20024;-64
2023/04/13 04:35:34;;;;;;;138.98;35.83;;;;;;;;;;4872733;29;20076;-65
2023/04/13 04:38:05;;;;;;;160.98;35.03;;;;;;;;;;4873183;29;20053;-65
2023/04/13 04:40:34;;;;;;;108.93;33.55;;;;;;;;;;4871946;29;20528;-65
2023/04/13 04:43:03;;;;;;;147.73;35.78;;;;;;;;;;4865708;29;20029;-65
2023/04/13 04:45:42;;;;;;;160.55;36.35;;;;;;;;;;4865898;29;20042;-65
2023/04/13 04:48:12;;;;;;;122.28;32.13;;;;;;;;;;4873325;29;20069;-65
2023/04/13 04:50:43;;;;;;;173.75;35.92;;;;;;;;;;4872822;29;20124;-65
2023/04/13 04:53:13;;;;;;;121.35;31.95;;;;;;;;;;4873653;29;20058;-65
2023/04/13 04:55:39;;;;;;;158.80;35.85;;;;;;;;;;4873700;29;20097;-65
2023/04/13 04:58:11;;;;;;;157.07;35.35;;;;;;;;;;4872473;29;20076;-65
2023/04/13 05:00:43;;;;;;;134.52;32.08;;;;;;;;;;4859616;29;20097;-64
2023/04/13 05:03:13;;;;;;;113.97;32.38;;;;;;;;;;4868780;29;20036;-64
2023/04/13 05:05:44;;;;;;;139.82;34.13;;;;;;;;;;4869787;29;20140;-65
2023/04/13 05:08:17;;;;;;;89.90;33.28;;;;;;;;;;4876484;29;20041;-65
2023/04/13 05:10:46;;;;;;;181.18;40.70;;;;;;;;;;4865330;29;20125;-65
2023/04/13 06:53:17;;;;;;;181.85;31.35;;;;;;;;;;5516927;23;20148;-64
2023/04/13 06:55:44;;;;;;;129.90;28.05;;;;;;;;;;4893266;29;20053;-63
2023/04/13 06:58:11;;;;;;;124.70;28.58;;;;;;;;;;4882771;29;20036;-57
2023/04/13 07:00:40;;;;;;;66.70;23.10;;;;;;;;;;4905115;29;20073;-63
2023/04/13 07:06:49;;;;;;;161.82;31.80;;;;;;;;;;3861675;27;20143;-63
2023/04/13 07:09:28;;;;;;;203.40;38.35;;;;;;;;;;4863379;29;20374;-63
2023/04/13 07:12:02;;;;;;;119.85;28.65;;;;;;;;;;4886095;29;20460;-64
2023/04/13 07:14:36;;;;;;;109.93;27.25;;;;;;;;;;4859980;29;20410;-63
2023/04/13 07:17:06;;;;;;;96.68;24.65;;;;;;;;;;4864943;29;20088;-64
2023/04/13 07:19:34;;;;;;;63.03;20.80;;;;;;;;;;4865916;29;20449;-64
2023/04/13 07:22:01;;;;;;;86.55;22.77;;;;;;;;;;4881907;29;20052;-63
2023/04/13 07:24:29;;;;;;;103.03;24.20;;;;;;;;;;4866026;29;20052;-64
2023/04/13 07:26:58;;;;;;;83.47;22.45;;;;;;;;;;4865961;29;20748;-66
2023/04/13 07:29:25;;;;;;;85.88;20.90;;;;;;;;;;4881444;29;20131;-64
2023/04/13 07:31:58;;;;;;;51.97;18.35;;;;;;;;;;4863055;29;20077;-66
2023/04/13 07:34:25;;;;;;;118.93;24.45;;;;;;;;;;4870318;29;20052;-67
2023/04/13 07:36:52;;;;;;;195.23;28.52;;;;;;;;;;4863371;29;20033;-66
2023/04/13 07:39:21;;;;;;;61.95;19.52;;;;;;;;;;4865508;29;20163;-63
2023/04/13 07:41:50;;;;;;;125.53;25.08;;;;;;;;;;4885032;29;20041;-64
2023/04/13 07:44:24;;;;;;;139.43;25.75;;;;;;;;;;4879347;29;20079;-64
2023/04/13 07:46:51;;;;;;;93.22;21.02;;;;;;;;;;4880291;29;20144;-64
2023/04/13 07:49:18;;;;;;;80.30;20.02;;;;;;;;;;4863452;29;20120;-64
2023/04/13 07:51:46;;;;;;;130.48;23.65;;;;;;;;;;4862316;29;20042;-64
2023/04/13 07:54:14;;;;;;;47.08;16.92;;;;;;;;;;4867522;29;20069;-64
2023/04/13 07:56:42;;;;;;;71.72;19.35;;;;;;;;;;4868077;29;20056;-64
2023/04/13 07:59:09;;;;;;;98.22;22.27;;;;;;;;;;4862637;29;20049;-64
2023/04/13 08:01:36;;;;;;;48.75;17.45;;;;;;;;;;4880682;29;20048;-64
2023/04/13 08:04:03;;;;;;;54.22;18.10;;;;;;;;;;4876903;29;20045;-64
2023/04/13 08:06:31;;;;;;;91.68;21.23;;;;;;;;;;4883466;29;20093;-64
2023/04/13 08:08:59;;;;;;;120.00;22.98;;;;;;;;;;4884838;29;20151;-64
2023/04/13 08:11:26;;;;;;;111.65;22.40;;;;;;;;;;4887353;29;20041;-64
2023/04/13 08:14:00;;;;;;;;;;;;;;;;;;4885311;29;20508;-64
2023/04/13 08:16:32;;;;;;;107.10;21.00;;;;;;;;;;4890864;29;19931;-64
2023/04/13 08:19:01;;;;;;;157.05;24.48;;;;;;;;;;4884063;29;20036;-63
2023/04/13 08:21:29;;;;;;;78.97;20.08;;;;;;;;;;4903863;29;20483;-63
2023/04/13 08:23:56;;;;;;;74.63;18.90;;;;;;;;;;4886911;29;20059;-63
2023/04/13 08:26:23;;;;;;;155.82;23.50;;;;;;;;;;4902250;29;20067;-63
2023/04/13 08:28:51;;;;;;;60.85;16.02;;;;;;;;;;4885499;29;20116;-63
2023/04/13 08:31:19;;;;;;;140.93;21.20;;;;;;;;;;4887434;29;20484;-64
2023/04/13 08:33:51;;;;;;;;;;;;;;;;;;4869472;29;20072;-63
2023/04/13 08:36:18;;;;;;;60.08;15.75;;;;;;;;;;4891095;29;19930;-63
2023/04/13 08:38:49;;;;;;;82.68;17.08;;;;;;;;;;4890179;29;20520;-63
2023/04/13 08:41:18;;;;;;;60.03;15.30;;;;;;;;;;4888645;29;20056;-63
2023/04/13 08:43:48;;;;;;;116.18;18.92;;;;;;;;;;4889536;29;20044;-63
2023/04/13 08:46:20;;;;;;;160.68;22.38;;;;;;;;;;4885515;29;20049;-63
2023/04/13 08:48:52;;;;;;;85.53;16.13;;;;;;;;;;4888899;29;20123;-63
2023/04/13 08:51:25;;;;;;;64.82;15.55;;;;;;;;;;4886866;29;20472;-63
2023/04/13 08:53:57;;;;;;;70.25;16.08;;;;;;;;;;4888151;29;20450;-63
2023/04/13 08:56:32;;;;;;;132.98;20.88;;;;;;;;;;4887867;29;20532;-63
2023/04/13 08:59:12;;;;;;;93.32;19.73;;;;;;;;;;4897492;29;20505;-63
2023/04/13 09:01:39;;;;;;;93.10;18.48;;;;;;;;;;4885188;29;20135;-63
2023/04/13 09:04:07;;;;;;;94.13;18.50;;;;;;;;;;4881935;29;20406;-63
2023/04/13 09:06:39;;;;;;;45.42;14.52;;;;;;;;;;4887103;29;20139;-63
2023/04/13 09:09:09;;;;;;;71.40;15.82;;;;;;;;;;4887762;29;20058;-63
2023/04/13 09:11:36;;;;;;;162.07;22.35;;;;;;;;;;4903779;29;20044;-63
2023/04/13 09:14:03;;;;;;;68.95;16.23;;;;;;;;;;4897174;29;20040;-64
2023/04/13 09:16:37;;;;;;;67.43;15.88;;;;;;;;;;4884200;29;20048;-63
2023/04/13 09:19:05;;;;;;;78.57;16.85;;;;;;;;;;4886882;29;20536;-63
2023/04/13 09:21:37;;;;;;;56.63;14.80;;;;;;;;;;4903293;29;20052;-63
2023/04/13 09:24:04;;;;;;;191.20;25.52;;;;;;;;;;4900522;29;20397;-63
2023/04/13 09:26:51;;;;;;;83.38;17.40;;;;;;;;;;4900761;29;20040;-64
2023/04/13 09:29:19;;;;;;;95.78;17.67;;;;;;;;;;4900499;29;20075;-63
2023/04/13 09:31:46;;;;;;;53.35;15.13;;;;;;;;;;4901940;29;20249;-63
2023/04/13 09:34:13;;;;;;;118.25;20.20;;;;;;;;;;4900266;29;20128;-64
2023/04/13 09:36:40;;;;;;;112.97;19.52;;;;;;;;;;4901194;29;20501;-63
2023/04/13 09:39:26;;;;;;;96.65;18.67;;;;;;;;;;4901199;29;20037;-64
2023/04/13 09:41:54;;;;;;;89.88;18.02;;;;;;;;;;4901412;29;20054;-63
2023/04/13 09:44:26;;;;;;;96.78;17.45;;;;;;;;;;4900885;29;20143;-63
2023/04/13 09:47:01;;;;;;;79.22;17.65;;;;;;;;;;4907743;29;20108;-67
2023/04/13 09:49:39;;;;;;;158.65;21.95;;;;;;;;;;4889429;29;20118;-64
2023/04/13 09:52:16;;;;;;;136.65;20.50;;;;;;;;;;4908975;29;20083;-64
2023/04/13 09:54:47;;;;;;;190.32;23.63;;;;;;;;;;4902831;29;20071;-61
2023/04/13 09:57:21;;;;;;;109.63;17.85;;;;;;;;;;4901297;29;20069;-66
2023/04/13 09:59:48;;;;;;;78.93;15.73;;;;;;;;;;4905981;29;20479;-69
2023/04/13 10:02:15;;;;;;;86.93;16.48;;;;;;;;;;4900300;29;20060;-65
2023/04/13 10:04:42;;;;;;;67.70;14.48;;;;;;;;;;4900611;29;20564;-62
2023/04/13 10:07:12;;;;;;;125.22;18.85;;;;;;;;;;4885075;29;20079;-66
2023/04/13 10:09:41;;;;;;;67.75;14.93;;;;;;;;;;4885777;29;20115;-66
2023/04/13 10:12:10;;;;;;;54.88;14.57;;;;;;;;;;4889738;29;20048;-65
2023/04/13 10:14:42;;;;;;;128.10;18.17;;;;;;;;;;4888309;29;20040;-62
2023/04/13 10:17:15;;;;;;;44.45;12.85;;;;;;;;;;4883230;29;20570;-62
2023/04/13 10:19:47;;;;;;;86.25;16.33;;;;;;;;;;4901221;29;20080;-62
2023/04/13 10:22:14;;;;;;;72.78;14.65;;;;;;;;;;4900166;29;20068;-61
2023/04/13 10:24:41;;;;;;;60.05;14.23;;;;;;;;;;4901880;29;20050;-62
2023/04/13 10:27:13;;;;;;;52.67;12.65;;;;;;;;;;4903203;29;20044;-63
2023/04/13 10:29:39;;;;;;;59.15;12.70;;;;;;;;;;4904666;29;20071;-62
2023/04/13 10:32:06;;;;;;;105.88;15.63;;;;;;;;;;4899314;29;20048;-61
2023/04/13 10:34:33;;;;;;;77.80;13.25;;;;;;;;;;4900286;29;20409;-63
2023/04/13 10:37:04;;;;;;;133.20;18.40;;;;;;;;;;4897523;29;20474;-64
2023/04/13 10:39:35;;;;;;;51.70;11.95;;;;;;;;;;4902041;29;20111;-57
2023/04/13 10:42:03;;;;;;;141.95;19.00;;;;;;;;;;4903665;29;20504;-57
2023/04/13 10:44:59;;;;;;;163.65;18.27;;;;;;;;;;4901858;29;20048;-56
2023/04/13 10:47:34;;;;;;;152.15;20.00;;;;;;;;;;4886484;29;20514;-53
2023/04/13 10:50:01;;;;;;;54.70;12.25;;;;;;;;;;4900546;29;20108;-56
2023/04/13 10:52:28;;;;;;;84.35;14.32;;;;;;;;;;4900823;29;20045;-55
2023/04/13 10:54:55;;;;;;;70.82;14.00;;;;;;;;;;4899256;29;20040;-56
2023/04/13 10:57:21;;;;;;;158.60;21.45;;;;;;;;;;4899059;29;20520;-65
2023/04/13 10:59:52;;;;;;;182.10;19.88;;;;;;;;;;4900073;29;20068;-64
2023/04/13 11:02:30;;;;;;;76.55;14.27;;;;;;;;;;4885868;29;20048;-64
2023/04/13 11:05:04;;;;;;;94.13;15.18;;;;;;;;;;4901625;29;20061;-65
2023/04/13 11:07:32;;;;;;;54.80;12.35;;;;;;;;;;4903619;29;20052;-64
2023/04/13 11:10:05;;;;;;;58.50;13.70;;;;;;;;;;4900861;29;20048;-64
2023/04/13 11:12:35;;;;;;;117.32;16.35;;;;;;;;;;4905660;29;20049;-64
2023/04/13 11:15:02;;;;;;;50.80;12.60;;;;;;;;;;4901275;29;20609;-65
2023/04/13 11:17:31;;;;;;;279.45;30.65;;;;;;;;;;4903579;29;20045;-65
2023/04/13 11:20:31;;;;;;;101.82;16.63;;;;;;;;;;4905984;29;20533;-65
2023/04/13 11:23:19;;;;;;;66.60;13.15;;;;;;;;;;4891674;29;20138;-64
2023/04/13 11:26:22;;;;;;;383.67;32.30;;;;;;;;;;4902850;29;20406;-64
2023/04/13 11:29:45;;;;;;;42.88;12.32;;;;;;;;;;4905084;29;20040;-65
2023/04/13 11:33:19;;;;;;;26.60;11.75;;;;;;;;;;4906716;29;20055;-64
2023/04/13 11:36:47;;;;;;;82.60;14.02;;;;;;;;;;4905416;29;20120;-64
2023/04/13 11:39:51;;;;;;;79.25;13.10;;;;;;;;;;4884180;29;20088;-65
2023/04/13 11:43:04;;;;;;;137.68;17.48;;;;;;;;;;4904656;29;20060;-64
2023/04/13 11:46:57;;;;;;;91.90;14.48;;;;;;;;;;4831997;29;20063;-64
2023/04/13 11:49:49;;;;;;;67.00;12.32;;;;;;;;;;4834384;29;20045;-64
2023/04/13 11:52:24;;;;;;;72.30;13.85;;;;;;;;;;4834373;29;20038;-65
2023/04/13 11:55:46;;;;;;;106.88;15.93;;;;;;;;;;4838083;29;20047;-65
2023/04/13 11:58:22;;;;;;;187.15;20.63;;;;;;;;;;4832298;29;20687;-55
2023/04/13 12:00:49;;;;;;;239.38;21.73;;;;;;;;;;4829356;29;20784;-55
2023/04/13 12:03:18;;;;;;;77.22;12.50;;;;;;;;;;4837139;29;20054;-54
2023/04/13 12:05:47;;;;;;;56.50;11.73;;;;;;;;;;4833684;29;20057;-55
2023/04/13 12:08:22;;;;;;;127.82;16.33;;;;;;;;;;4834958;29;20529;-57
2023/04/13 12:10:54;;;;;;;77.75;12.52;;;;;;;;;;4829171;29;20581;-57
2023/04/13 12:13:23;;;;;;;101.72;13.70;;;;;;;;;;4835139;29;20119;-58
2023/04/13 12:16:01;;;;;;;43.25;10.73;;;;;;;;;;4831157;29;20091;-57
2023/04/13 12:18:31;;;;;;;97.05;13.15;;;;;;;;;;4835715;29;20037;-56
2023/04/13 12:21:03;;;;;;;119.22;14.15;;;;;;;;;;4837620;29;20106;-53
2023/04/13 12:23:31;;;;;;;102.63;14.05;;;;;;;;;;4904985;29;20046;-50
2023/04/13 12:25:58;;;;;;;57.00;11.07;;;;;;;;;;4903043;29;20052;-55
2023/04/13 12:28:29;;;;;;;92.50;13.32;;;;;;;;;;4901560;29;20540;-53
2023/04/13 12:31:03;;;;;;;72.75;11.25;;;;;;;;;;4903211;29;20119;-55
2023/04/13 12:33:29;;;;;;;139.68;15.70;;;;;;;;;;4901807;29;20485;-55
2023/04/13 12:35:56;;;;;;;79.80;11.52;;;;;;;;;;4905464;29;20037;-55
2023/04/13 12:38:23;;;;;;;78.97;12.40;;;;;;;;;;4905108;29;20048;-52
2023/04/13 12:40:58;;;;;;;150.35;17.25;;;;;;;;;;4902381;29;20056;-53
2023/04/13 12:43:25;;;;;;;43.45;9.85;;;;;;;;;;4898567;29;20493;-55
2023/04/13 12:45:52;;;;;;;81.43;11.43;;;;;;;;;;4902238;29;20041;-54
2023/04/13 12:48:19;;;;;;;162.65;17.13;;;;;;;;;;4903195;29;20521;-55
2023/04/13 12:50:45;;;;;;;59.67;10.65;;;;;;;;;;4903474;29;20048;-55
2023/04/13 12:53:12;;;;;;;63.05;11.40;;;;;;;;;;4900665;29;20045;-53
2023/04/13 12:55:38;;;;;;;144.20;16.58;;;;;;;;;;4903502;29;20048;-53
2023/04/13 12:58:05;;;;;;;80.53;12.60;;;;;;;;;;4902476;29;20041;-53
2023/04/13 13:00:32;;;;;;;129.32;16.40;;;;;;;;;;4904346;29;20500;-64
2023/04/13 13:03:00;;;;;;;149.52;16.40;;;;;;;;;;4905202;29;20044;-64
2023/04/13 13:05:50;;;;;;;116.15;14.20;;;;;;;;;;4895444;29;20091;-65
2023/04/13 13:08:31;;;;;;;100.07;13.80;;;;;;;;;;4907156;29;20181;-64
2023/04/13 13:11:09;;;;;;;55.65;10.05;;;;;;;;;;4911544;29;20060;-65
2023/04/13 13:14:05;;;;;;;70.28;10.52;;;;;;;;;;4908667;29;20076;-63
2023/04/13 13:16:45;;;;;;;97.93;12.77;;;;;;;;;;4900785;29;20044;-65
2023/04/13 13:19:16;;;;;;;40.72;8.75;;;;;;;;;;4911136;29;20040;-63
2023/04/13 13:21:54;;;;;;;133.23;15.05;;;;;;;;;;4908591;29;20076;-64
2023/04/13 13:24:58;;;;;;;49.53;8.77;;;;;;;;;;4908477;29;20049;-63
2023/04/13 13:28:01;;;;;;;45.50;9.20;;;;;;;;;;4906952;29;20048;-62
2023/04/13 13:30:41;;;;;;;64.72;10.63;;;;;;;;;;4888408;29;20127;-63
2023/04/13 13:33:13;;;;;;;127.00;14.85;;;;;;;;;;4884312;29;20066;-63
2023/04/13 13:36:43;;;;;;;115.70;13.88;;;;;;;;;;4896023;29;20059;-62
2023/04/13 13:39:21;;;;;;;44.25;9.07;;;;;;;;;;4893989;29;20048;-62
2023/04/13 13:42:16;;;;;;;95.43;11.77;;;;;;;;;;4907071;29;20517;-63
2023/04/13 13:45:01;;;;;;;74.63;10.43;;;;;;;;;;4913795;29;20043;-62
2023/04/13 13:48:00;;;;;;;29.95;7.68;;;;;;;;;;4892439;29;20047;-62
2023/04/13 13:50:54;;;;;;;118.53;15.07;;;;;;;;;;4906895;29;20055;-62
2023/04/13 13:53:25;;;;;;;214.40;20.77;;;;;;;;;;4896762;29;20139;-66
2023/04/13 13:55:53;;;;;;;70.90;11.20;;;;;;;;;;4901567;29;20540;-63
2023/04/13 13:58:21;;;;;;;44.75;9.02;;;;;;;;;;4899128;29;20123;-63
2023/04/13 14:00:49;;;;;;;142.45;16.20;;;;;;;;;;4901302;29;20266;-63
2023/04/13 14:03:17;;;;;;;226.80;19.83;;;;;;;;;;4904121;29;20072;-54
2023/04/13 14:05:44;;;;;;;208.27;18.35;;;;;;;;;;4902458;29;20126;-55
2023/04/13 14:08:11;;;;;;;130.38;14.38;;;;;;;;;;4902447;29;20079;-52
2023/04/13 14:10:37;;;;;;;60.17;10.07;;;;;;;;;;4902279;29;20044;-53
2023/04/13 14:13:04;;;;;;;89.50;11.98;;;;;;;;;;4901628;29;20072;-53
2023/04/13 14:15:31;;;;;;;156.60;15.20;;;;;;;;;;4903844;29;20048;-54
2023/04/13 14:17:58;;;;;;;110.35;12.55;;;;;;;;;;4905768;29;20044;-54
2023/04/13 14:20:37;;;;;;;112.45;12.60;;;;;;;;;;4883801;29;20394;-55
2023/04/13 14:23:04;;;;;;;69.93;10.50;;;;;;;;;;4899267;29;20569;-52
2023/04/13 14:25:31;;;;;;;69.40;10.45;;;;;;;;;;4901466;29;20501;-53
2023/04/13 14:27:57;;;;;;;48.55;9.50;;;;;;;;;;4898622;29;20112;-52
2023/04/13 14:30:25;;;;;;;103.38;13.07;;;;;;;;;;4904023;29;20048;-53
2023/04/13 14:32:53;;;;;;;42.33;9.20;;;;;;;;;;4904936;29;20043;-54
2023/04/13 14:35:20;;;;;;;64.32;11.15;;;;;;;;;;4901904;29;20143;-53
2023/04/13 14:37:46;;;;;;;79.20;12.30;;;;;;;;;;4901710;29;20044;-50
2023/04/13 14:40:15;;;;;;;51.55;9.70;;;;;;;;;;4897647;29;20040;-53
2023/04/13 14:42:42;;;;;;;78.55;11.60;;;;;;;;;;4897304;29;20604;-55
2023/04/13 14:45:12;;;;;;;100.18;12.40;;;;;;;;;;4902693;29;20048;-54
2023/04/13 14:47:38;;;;;;;123.13;14.93;;;;;;;;;;4884613;29;20059;-52
2023/04/13 14:50:07;;;;;;;67.50;10.80;;;;;;;;;;4900649;29;20405;-55
2023/04/13 14:52:34;;;;;;;72.55;12.07;;;;;;;;;;4884569;29;20056;-51
2023/04/13 14:55:00;;;;;;;63.80;9.60;;;;;;;;;;4900528;29;20395;-54
2023/04/13 14:57:27;;;;;;;95.50;12.10;;;;;;;;;;4900929;29;20041;-54
2023/04/13 14:59:54;;;;;;;63.25;10.27;;;;;;;;;;4901419;29;20036;-52
2023/04/13 15:02:22;;;;;;;50.45;9.65;;;;;;;;;;4898439;29;20048;-54
2023/04/13 15:04:49;;;;;;;93.53;11.80;;;;;;;;;;4889802;29;20052;-55
2023/04/13 15:07:17;;;;;;;214.65;20.38;;;;;;;;;;4897000;29;20579;-62
2023/04/13 15:09:44;;;;;;;88.15;11.73;;;;;;;;;;4883976;29;20135;-63
2023/04/13 15:12:11;;;;;;;90.32;12.02;;;;;;;;;;4887493;29;20127;-63
2023/04/13 15:14:49;;;;;;;99.65;13.23;;;;;;;;;;4899502;29;20108;-63
2023/04/13 15:17:18;;;;;;;45.60;9.10;;;;;;;;;;4903802;29;20044;-63
2023/04/13 15:19:56;;;;;;;105.60;14.02;;;;;;;;;;4908857;29;20223;-63
2023/04/13 15:22:46;;;;;;;72.57;12.77;;;;;;;;;;4892290;29;20043;-63
2023/04/13 15:25:53;;;;;;;139.70;14.82;;;;;;;;;;4907015;29;20083;-64
2023/04/13 15:28:39;;;;;;;60.92;12.55;;;;;;;;;;4911455;29;20487;-63
2023/04/13 15:31:27;;;;;;;88.32;14.15;;;;;;;;;;4907861;29;20052;-63
2023/04/13 15:34:07;;;;;;;236.32;22.45;;;;;;;;;;4907070;29;20108;-64
2023/04/13 15:37:03;;;;;;;87.40;13.25;;;;;;;;;;4887329;29;20039;-63
2023/04/13 15:39:39;;;;;;;77.22;12.80;;;;;;;;;;4905490;29;20079;-63
2023/04/13 15:42:42;;;;;;;53.03;12.00;;;;;;;;;;4910415;29;20037;-62
2023/04/13 15:45:23;;;;;;;46.65;11.77;;;;;;;;;;4897760;29;20037;-64
2023/04/13 15:48:23;;;;;;;156.00;19.85;;;;;;;;;;4904098;29;20104;-63
2023/04/13 15:51:08;;;;;;;142.63;17.30;;;;;;;;;;4899089;29;20092;-62
2023/04/13 15:53:50;;;;;;;145.25;19.83;;;;;;;;;;4884485;29;20052;-63
2023/04/13 16:00:14;;;;;;;34.00;10.55;;;;;;;;;;4901571;29;20573;-63
2023/04/13 16:03:28;;;;;;;160.60;19.00;;;;;;;;;;4909945;29;20463;-63
2023/04/13 16:09:54;;;;;;;71.30;14.27;;;;;;;;;;4902760;29;20200;-52
2023/04/13 16:12:21;;;;;;;;;;;;;;;;;;4900534;29;20036;-55
2023/04/13 16:14:48;;;;;;;69.15;12.05;;;;;;;;;;4900116;29;19930;-55
2023/04/13 16:17:15;;;;;;;104.00;13.30;;;;;;;;;;4897220;29;20740;-54
2023/04/13 16:19:49;;;;;;;170.20;19.63;;;;;;;;;;4899400;29;20063;-55
2023/04/13 16:22:16;;;;;;;92.90;12.85;;;;;;;;;;4902646;29;20089;-55
2023/04/13 16:24:43;;;;;;;65.68;12.05;;;;;;;;;;4898162;29;20660;-53
2023/04/13 16:27:09;;;;;;;139.50;17.80;;;;;;;;;;4884776;29;20135;-55
2023/04/13 16:29:36;;;;;;;133.48;16.60;;;;;;;;;;4901440;29;20135;-54
2023/04/13 16:32:02;;;;;;;80.78;13.48;;;;;;;;;;4898218;29;20052;-52
2023/04/13 16:34:29;;;;;;;98.55;14.88;;;;;;;;;;4901930;29;20274;-54
2023/04/13 16:36:56;;;;;;;120.97;16.60;;;;;;;;;;4902610;29;20104;-56
2023/04/13 16:39:23;;;;;;;62.38;12.98;;;;;;;;;;4901041;29;20044;-55
2023/04/13 16:41:49;;;;;;;152.25;19.02;;;;;;;;;;4904357;29;20040;-54
2023/04/13 16:44:17;;;;;;;80.72;14.77;;;;;;;;;;4903925;29;20157;-63
2023/04/13 16:46:46;;;;;;;74.05;17.02;;;;;;;;;;4871107;29;20056;-64
2023/04/13 16:49:42;;;;;;;61.72;15.57;;;;;;;;;;4909033;29;20037;-62
2023/04/13 16:53:18;;;;;;;143.13;20.42;;;;;;;;;;4912804;29;20113;-63
2023/04/13 16:57:05;;;;;;;172.75;22.92;;;;;;;;;;4907132;29;20039;-62
2023/04/13 17:08:28;;;;;;;54.72;13.05;;;;;;;;;;4910659;29;20052;-72
2023/04/13 17:12:06;;;;;;;;;;;;;;;;;;4899840;29;20087;-70
2023/04/13 17:15:22;;;;;;;85.03;17.63;;;;;;;;;;4906046;29;19946;-73
2023/04/13 17:38:07;;;;;;;113.43;19.65;;;;;;;;;;4898354;29;20064;-75
2023/04/13 17:44:55;;;;;;;128.48;19.33;;;;;;;;;;4896652;29;20044;-76
2023/04/13 17:47:23;;;;;;;90.47;16.48;;;;;;;;;;4900279;29;20526;-48
2023/04/13 17:49:50;;;;;;;95.38;16.83;;;;;;;;;;4901083;29;20048;-51
2023/04/13 17:52:16;;;;;;;203.00;24.83;;;;;;;;;;4881395;29;20041;-49
2023/04/13 17:54:43;;;;;;;202.70;24.23;;;;;;;;;;4906067;29;20052;-48
2023/04/13 17:57:09;;;;;;;138.60;21.40;;;;;;;;;;4907344;29;20050;-48
2023/04/13 17:59:36;;;;;;;244.65;27.35;;;;;;;;;;4906075;29;20055;-49
2023/04/13 18:02:04;;;;;;;89.38;17.98;;;;;;;;;;4906202;29;20040;-49
2023/04/13 18:04:33;;;;;;;134.43;21.38;;;;;;;;;;4906746;29;20095;-51
2023/04/13 18:07:01;;;;;;;236.77;27.88;;;;;;;;;;4901460;29;20048;-51
2023/04/13 18:09:30;;;;;;;108.43;17.83;;;;;;;;;;4904171;29;20123;-51
2023/04/13 18:11:56;;;;;;;105.28;17.60;;;;;;;;;;4899558;29;20044;-51
2023/04/13 18:14:23;;;;;;;158.00;19.85;;;;;;;;;;4899879;29;20058;-50
2023/04/13 18:16:50;;;;;;;83.75;15.82;;;;;;;;;;4900622;29;20091;-50
2023/04/13 18:19:17;;;;;;;67.68;14.82;;;;;;;;;;4902831;29;20119;-51
2023/04/13 18:21:43;;;;;;;184.52;21.83;;;;;;;;;;4902351;29;20045;-49
2023/04/13 18:24:10;;;;;;;90.85;15.10;;;;;;;;;;4906364;29;20119;-49
2023/04/13 18:26:36;;;;;;;96.10;17.05;;;;;;;;;;4894425;29;20119;-50
2023/04/13 18:29:06;;;;;;;176.25;22.75;;;;;;;;;;4898909;29;20748;-48
2023/04/13 18:31:33;;;;;;;84.97;17.52;;;;;;;;;;4900125;29;20032;-52
2023/04/13 18:33:59;;;;;;;76.90;15.88;;;;;;;;;;4897467;29;20041;-51
2023/04/13 18:36:26;;;;;;;191.07;24.13;;;;;;;;;;4902640;29;20512;-51
2023/04/13 18:38:53;;;;;;;101.88;17.90;;;;;;;;;;4904122;29;20063;-51
2023/04/13 18:41:20;;;;;;;96.47;18.20;;;;;;;;;;4887211;29;20044;-49
2023/04/13 18:43:47;;;;;;;116.70;19.40;;;;;;;;;;4900822;29;20123;-50
2023/04/13 18:46:15;;;;;;;107.53;19.05;;;;;;;;;;4898102;29;20131;-73
2023/04/13 20:38:58;;;;;;;345.40;31.90;;;;;;;;;;5321308;23;20513;-44
2023/04/13 20:41:26;;;;;;;151.10;18.02;;;;;;;;;;4902030;29;20071;-43
2023/04/13 20:43:53;;;;;;;99.82;15.10;;;;;;;;;;4918031;29;20090;-44
2023/04/13 20:46:24;;;;;;;123.97;16.45;;;;;;;;;;4918650;29;20040;-43
2023/04/13 20:48:51;;;;;;;203.52;22.38;;;;;;;;;;4919734;29;20115;-44
2023/04/13 20:51:18;;;;;;;86.78;14.30;;;;;;;;;;4922866;29;20062;-43
2023/04/13 20:53:44;;;;;;;132.93;16.88;;;;;;;;;;4921810;29;20048;-44
2023/04/13 20:56:11;;;;;;;173.18;20.33;;;;;;;;;;4919487;29;20079;-45
2023/04/13 20:58:38;;;;;;;134.45;17.95;;;;;;;;;;4905393;29;20378;-45
2023/04/13 21:01:04;;;;;;;108.43;15.45;;;;;;;;;;4904670;29;20461;-44
2023/04/13 21:03:31;;;;;;;149.35;18.52;;;;;;;;;;4919635;29;20058;-44
2023/04/13 21:05:58;;;;;;;126.65;16.90;;;;;;;;;;4918937;29;20051;-44
2023/04/13 21:08:26;;;;;;;142.60;17.95;;;;;;;;;;4917277;29;20048;-43
2023/04/13 21:10:52;;;;;;;196.35;23.52;;;;;;;;;;4918494;29;20044;-44
2023/04/13 21:13:19;;;;;;;84.28;16.13;;;;;;;;;;4921582;29;20036;-45
2023/04/13 21:15:45;;;;;;;125.40;18.63;;;;;;;;;;4919099;29;20079;-44
2023/04/13 21:18:12;;;;;;;178.27;23.35;;;;;;;;;;4921965;29;20050;-44
2023/04/13 21:20:41;;;;;;;108.65;18.02;;;;;;;;;;4917681;29;20154;-44
2023/04/13 21:23:08;;;;;;;133.20;20.33;;;;;;;;;;4919271;29;20413;-44
2023/04/13 21:25:35;;;;;;;137.02;19.42;;;;;;;;;;4915481;29;20123;-44
2023/04/13 21:28:01;;;;;;;117.18;18.20;;;;;;;;;;4919771;29;20043;-44
2023/04/13 21:30:28;;;;;;;134.30;18.98;;;;;;;;;;4915975;29;20548;-43
2023/04/13 21:32:55;;;;;;;174.77;21.73;;;;;;;;;;4919030;29;20103;-44
2023/04/13 21:35:21;;;;;;;100.20;17.35;;;;;;;;;;4918360;29;20047;-43
2023/04/13 21:37:48;;;;;;;122.20;21.05;;;;;;;;;;4918585;29;20068;-43
2023/04/13 21:40:15;;;;;;;232.95;24.20;;;;;;;;;;4918315;29;20032;-55
2023/04/13 21:42:42;;;;;;;117.03;18.48;;;;;;;;;;4916746;29;20111;-54
2023/04/13 21:45:08;;;;;;;131.43;18.35;;;;;;;;;;4918648;29;20047;-55
2023/04/13 21:47:35;;;;;;;106.50;17.60;;;;;;;;;;4916503;29;20052;-56
2023/04/13 21:50:01;;;;;;;162.25;20.83;;;;;;;;;;4920205;29;20044;-57
2023/04/13 21:52:28;;;;;;;102.72;17.67;;;;;;;;;;4917684;29;20091;-53
2023/04/13 21:54:54;;;;;;;156.70;21.75;;;;;;;;;;4921306;29;20040;-57
2023/04/13 21:57:21;;;;;;;156.50;21.30;;;;;;;;;;4923153;29;20040;-53
2023/04/13 21:59:47;;;;;;;135.77;19.73;;;;;;;;;;4919390;29;20044;-55
2023/04/13 22:02:14;;;;;;;73.45;15.98;;;;;;;;;;4918541;29;20047;-54
2023/04/13 22:04:41;;;;;;;156.70;21.75;;;;;;;;;;4916914;29;20103;-55
2023/04/13 22:07:07;;;;;;;145.52;19.90;;;;;;;;;;4917407;29;20057;-56
2023/04/13 22:09:34;;;;;;;124.60;18.20;;;;;;;;;;4920682;29;20047;-56
2023/04/13 22:12:01;;;;;;;183.77;22.25;;;;;;;;;;4918343;29;20810;-52
2023/04/13 22:14:27;;;;;;;107.47;17.50;;;;;;;;;;4917375;29;20048;-56
2023/04/13 22:16:54;;;;;;;111.75;19.10;;;;;;;;;;4915166;29;20190;-56
2023/04/13 22:19:20;;;;;;;204.68;23.58;;;;;;;;;;4916822;29;20036;-55
2023/04/13 22:21:47;;;;;;;133.43;21.00;;;;;;;;;;4917824;29;20107;-57
2023/04/13 22:24:14;;;;;;;107.63;19.95;;;;;;;;;;4918331;29;20050;-54
2023/04/13 22:26:41;;;;;;;176.50;22.77;;;;;;;;;;4915932;29;20051;-54